createdAt,value
2016-04-03T00:00:15.493Z,0
2016-04-03T00:01:15.403Z,0
2016-04-03T00:02:15.358Z,0
2016-04-03T00:03:15.267Z,0
2016-04-03T00:04:15.286Z,0
2016-04-03T00:05:15.194Z,0
2016-04-03T00:06:14.588Z,0
2016-04-03T00:07:15.153Z,0
2016-04-03T00:08:15.031Z,0
2016-04-03T00:09:14.986Z,0
2016-04-03T00:10:14.911Z,0
2016-04-03T00:11:14.882Z,0
2016-04-03T00:12:14.822Z,0
2016-04-03T00:13:14.794Z,0
2016-04-03T00:14:14.703Z,0
2016-04-03T00:15:14.658Z,0
2016-04-03T00:16:14.615Z,0
2016-04-03T00:17:14.555Z,0
2016-04-03T00:18:14.480Z,0
2016-04-03T00:19:14.452Z,0
2016-04-03T00:20:14.407Z,0
2016-04-03T00:21:14.347Z,0
2016-04-03T00:22:14.303Z,0
2016-04-03T00:23:14.243Z,0
2016-04-03T00:24:14.183Z,0
2016-04-03T00:25:14.139Z,0
2016-04-03T00:26:14.080Z,0
2016-04-03T00:27:14.035Z,0
2016-04-03T00:28:13.819Z,0
2016-04-03T00:29:13.916Z,0
2016-04-03T00:30:13.871Z,0
2016-04-03T00:31:13.827Z,0
2016-04-03T00:32:13.767Z,0
2016-04-03T00:33:13.707Z,0
2016-04-03T00:34:13.664Z,0
2016-04-03T00:35:13.603Z,0
2016-04-03T00:36:13.544Z,0
2016-04-03T00:37:13.499Z,0
2016-04-03T00:38:13.455Z,0
2016-04-03T00:39:13.380Z,0
2016-04-03T00:40:13.336Z,0
2016-04-03T00:41:13.323Z,0
2016-04-03T00:42:13.217Z,0
2016-04-03T00:43:13.234Z,0
2016-04-03T00:44:13.175Z,0
2016-04-03T00:45:13.099Z,0
2016-04-03T00:46:13.024Z,0
2016-04-03T00:47:12.964Z,0
2016-04-03T00:48:12.904Z,0
2016-04-03T00:49:12.860Z,0
2016-04-03T00:50:12.815Z,0
2016-04-03T00:51:12.755Z,0
2016-04-03T00:52:12.712Z,0
2016-04-03T00:53:12.652Z,0
2016-04-03T00:54:12.593Z,0
2016-04-03T00:55:12.548Z,0
2016-04-03T00:56:12.488Z,0
2016-04-03T00:57:12.443Z,0
2016-04-03T00:58:12.384Z,0
2016-04-03T00:59:12.340Z,0
2016-04-03T01:00:12.279Z,0
2016-04-03T01:01:12.237Z,0
2016-04-03T01:02:12.160Z,0
2016-04-03T01:03:12.163Z,0
2016-04-03T01:04:12.057Z,0
2016-04-03T01:05:12.013Z,0
2016-04-03T01:06:11.984Z,0
2016-04-03T01:07:11.909Z,0
2016-04-03T01:08:11.886Z,0
2016-04-03T01:09:11.811Z,0
2016-04-03T01:10:11.751Z,0
2016-04-03T01:11:10.957Z,0
2016-04-03T01:12:11.632Z,0
2016-04-03T01:13:11.587Z,0
2016-04-03T01:14:11.387Z,0
2016-04-03T01:15:11.467Z,0
2016-04-03T01:16:11.455Z,0
2016-04-03T01:17:11.367Z,0
2016-04-03T01:18:11.324Z,0
2016-04-03T01:19:11.280Z,0
2016-04-03T01:20:11.219Z,0
2016-04-03T01:21:11.160Z,0
2016-04-03T01:22:11.099Z,0
2016-04-03T01:23:11.055Z,0
2016-04-03T01:24:10.996Z,0
2016-04-03T01:25:10.952Z,0
2016-04-03T01:26:10.892Z,0
2016-04-03T01:27:10.849Z,0
2016-04-03T01:28:10.804Z,0
2016-04-03T01:29:10.729Z,0
2016-04-03T01:30:10.684Z,0
2016-04-03T01:31:10.624Z,0
2016-04-03T01:32:10.565Z,0
2016-04-03T01:33:10.535Z,0
2016-04-03T01:34:10.460Z,0
2016-04-03T01:35:10.415Z,0
2016-04-03T01:36:10.387Z,0
2016-04-03T01:37:10.312Z,0
2016-04-03T01:38:10.267Z,0
2016-04-03T01:39:10.052Z,0
2016-04-03T01:40:10.164Z,0
2016-04-03T01:41:10.089Z,0
2016-04-03T01:42:10.044Z,0
2016-04-03T01:43:10.000Z,0
2016-04-03T01:44:09.972Z,0
2016-04-03T01:45:09.880Z,0
2016-04-03T01:46:09.820Z,0
2016-04-03T01:47:09.792Z,0
2016-04-03T01:48:09.717Z,0
2016-04-03T01:49:09.689Z,0
2016-04-03T01:50:09.628Z,0
2016-04-03T01:51:09.569Z,0
2016-04-03T01:52:09.524Z,0
2016-04-03T01:53:09.464Z,0
2016-04-03T01:54:09.405Z,0
2016-04-03T01:55:09.345Z,0
2016-04-03T01:56:09.301Z,0
2016-04-03T01:57:09.272Z,0
2016-04-03T01:58:09.227Z,0
2016-04-03T01:59:09.152Z,0
2016-04-03T02:00:09.093Z,0
2016-04-03T02:01:09.049Z,0
2016-04-03T02:02:09.005Z,0
2016-04-03T02:03:08.929Z,0
2016-04-03T02:04:08.869Z,0
2016-04-03T02:05:08.840Z,0
2016-04-03T02:06:08.781Z,0
2016-04-03T02:07:08.721Z,0
2016-04-03T02:08:08.666Z,0
2016-04-03T02:09:08.606Z,0
2016-04-03T02:10:08.593Z,0
2016-04-03T02:11:08.503Z,0
2016-04-03T02:12:08.474Z,0
2016-04-03T02:13:08.398Z,0
2016-04-03T02:14:08.339Z,0
2016-04-03T02:15:08.294Z,0
2016-04-03T02:16:08.250Z,0
2016-04-03T02:17:08.175Z,0
2016-04-03T02:18:08.161Z,0
2016-04-03T02:19:08.071Z,0
2016-04-03T02:20:08.026Z,0
2016-04-03T02:21:07.982Z,0
2016-04-03T02:22:07.938Z,0
2016-04-03T02:23:07.863Z,0
2016-04-03T02:24:07.835Z,0
2016-04-03T02:25:07.805Z,0
2016-04-03T02:26:07.715Z,0
2016-04-03T02:27:07.685Z,0
2016-04-03T02:28:07.595Z,0
2016-04-03T02:29:07.551Z,0
2016-04-03T02:30:07.507Z,0
2016-04-03T02:31:07.431Z,0
2016-04-03T02:32:07.418Z,0
2016-04-03T02:33:07.342Z,0
2016-04-03T02:34:07.298Z,0
2016-04-03T02:35:07.254Z,0
2016-04-03T02:36:07.163Z,0
2016-04-03T02:37:07.166Z,0
2016-04-03T02:38:07.090Z,0
2016-04-03T02:39:07.031Z,0
2016-04-03T02:40:06.955Z,0
2016-04-03T02:41:06.926Z,0
2016-04-03T02:42:06.883Z,0
2016-04-03T02:43:06.822Z,0
2016-04-03T02:44:06.778Z,0
2016-04-03T02:45:06.719Z,0
2016-04-03T02:46:06.644Z,0
2016-04-03T02:47:06.615Z,0
2016-04-03T02:48:06.555Z,0
2016-04-03T02:49:06.480Z,0
2016-04-03T02:50:06.450Z,0
2016-04-03T02:51:06.391Z,0
2016-04-03T02:52:06.330Z,0
2016-04-03T02:53:06.302Z,0
2016-04-03T02:54:06.227Z,0
2016-04-03T02:55:05.996Z,0
2016-04-03T02:56:06.124Z,0
2016-04-03T02:57:06.063Z,0
2016-04-03T02:58:06.019Z,0
2016-04-03T02:59:05.944Z,0
2016-04-03T03:00:05.916Z,0
2016-04-03T03:01:05.887Z,0
2016-04-03T03:02:05.843Z,0
2016-04-03T03:03:05.735Z,0
2016-04-03T03:04:05.723Z,0
2016-04-03T03:05:05.648Z,0
2016-04-03T03:06:05.603Z,0
2016-04-03T03:07:05.543Z,0
2016-04-03T03:08:05.498Z,0
2016-04-03T03:09:05.423Z,0
2016-04-03T03:10:05.379Z,0
2016-04-03T03:11:05.320Z,0
2016-04-03T03:12:05.292Z,0
2016-04-03T03:13:05.247Z,0
2016-04-03T03:14:05.172Z,0
2016-04-03T03:15:05.127Z,0
2016-04-03T03:16:05.083Z,0
2016-04-03T03:17:05.023Z,0
2016-04-03T03:18:04.979Z,0
2016-04-03T03:19:04.920Z,0
2016-04-03T03:20:04.875Z,0
2016-04-03T03:21:04.800Z,0
2016-04-03T03:22:04.772Z,0
2016-04-03T03:23:04.696Z,0
2016-04-03T03:24:04.652Z,0
2016-04-03T03:25:04.591Z,0
2016-04-03T03:26:04.532Z,0
2016-04-03T03:27:04.504Z,0
2016-04-03T03:28:04.443Z,0
2016-04-03T03:29:04.399Z,0
2016-04-03T03:30:04.308Z,0
2016-04-03T03:31:04.295Z,0
2016-04-03T03:32:04.221Z,0
2016-04-03T03:33:04.176Z,0
2016-04-03T03:34:04.148Z,0
2016-04-03T03:35:04.072Z,0
2016-04-03T03:36:04.028Z,0
2016-04-03T03:37:03.952Z,0
2016-04-03T03:38:03.908Z,0
2016-04-03T03:39:03.848Z,0
2016-04-03T03:40:03.789Z,0
2016-04-03T03:41:03.744Z,0
2016-04-03T03:42:03.700Z,0
2016-04-03T03:43:03.483Z,0
2016-04-03T03:44:03.580Z,0
2016-04-03T03:45:03.567Z,0
2016-04-03T03:46:03.492Z,0
2016-04-03T03:47:03.433Z,0
2016-04-03T03:48:03.372Z,0
2016-04-03T03:49:03.359Z,0
2016-04-03T03:50:03.127Z,0
2016-04-03T03:51:03.224Z,0
2016-04-03T03:52:03.196Z,0
2016-04-03T03:53:03.088Z,0
2016-04-03T03:54:03.091Z,0
2016-04-03T03:55:03.032Z,0
2016-04-03T03:56:02.957Z,0
2016-04-03T03:57:02.928Z,0
2016-04-03T03:58:02.853Z,0
2016-04-03T03:59:02.840Z,0
2016-04-03T04:00:02.764Z,0
2016-04-03T04:01:02.704Z,0
2016-04-03T04:02:02.644Z,0
2016-04-03T04:03:02.569Z,0
2016-04-03T04:04:02.587Z,0
2016-04-03T04:05:02.481Z,0
2016-04-03T04:06:02.420Z,0
2016-04-03T04:07:02.377Z,0
2016-04-03T04:08:02.332Z,0
2016-04-03T04:09:02.273Z,0
2016-04-03T04:10:02.229Z,0
2016-04-03T04:11:02.153Z,0
2016-04-03T04:12:02.109Z,0
2016-04-03T04:13:02.064Z,0
2016-04-03T04:14:01.989Z,0
2016-04-03T04:15:01.976Z,0
2016-04-03T04:16:01.885Z,0
2016-04-03T04:17:01.872Z,0
2016-04-03T04:18:01.780Z,0
2016-04-03T04:19:01.721Z,0
2016-04-03T04:20:01.677Z,0
2016-04-03T04:21:01.633Z,0
2016-04-03T04:22:01.589Z,0
2016-04-03T04:23:01.514Z,0
2016-04-03T04:24:01.469Z,0
2016-04-03T04:25:01.456Z,0
2016-04-03T04:26:01.380Z,0
2016-04-03T04:27:01.321Z,0
2016-04-03T04:28:01.261Z,0
2016-04-03T04:29:01.185Z,0
2016-04-03T04:30:01.142Z,0
2016-04-03T04:31:01.097Z,0
2016-04-03T04:32:01.038Z,0
2016-04-03T04:33:00.994Z,0
2016-04-03T04:34:00.777Z,0
2016-04-03T04:35:00.890Z,0
2016-04-03T04:36:00.829Z,0
2016-04-03T04:37:00.770Z,0
2016-04-03T04:38:00.773Z,0
2016-04-03T04:39:00.650Z,0
2016-04-03T04:40:00.606Z,0
2016-04-03T04:41:00.561Z,0
2016-04-03T04:42:00.501Z,0
2016-04-03T04:43:00.442Z,0
2016-04-03T04:44:00.382Z,0
2016-04-03T04:45:00.339Z,0
2016-04-03T04:46:00.294Z,0
2016-04-03T04:47:00.265Z,0
2016-04-03T04:48:00.189Z,0
2016-04-03T04:49:00.145Z,0
2016-04-03T04:50:00.070Z,0
2016-04-03T04:51:00.026Z,0
2016-04-03T04:51:59.982Z,0
2016-04-03T04:52:59.922Z,0
2016-04-03T04:53:59.877Z,4
2016-04-03T04:54:59.802Z,0
2016-04-03T04:55:59.758Z,0
2016-04-03T04:56:59.713Z,0
2016-04-03T04:57:59.655Z,4
2016-04-03T04:58:59.594Z,0
2016-04-03T04:59:59.550Z,0
2016-04-03T05:00:59.491Z,4
2016-04-03T05:01:59.415Z,0
2016-04-03T05:02:59.387Z,0
2016-04-03T05:03:59.326Z,4
2016-04-03T05:04:59.267Z,4
2016-04-03T05:05:59.223Z,0
2016-04-03T05:06:59.179Z,4
2016-04-03T05:07:59.119Z,4
2016-04-03T05:08:59.059Z,4
2016-04-03T05:09:59.015Z,4
2016-04-03T05:10:58.939Z,4
2016-04-03T05:11:58.879Z,4
2016-04-03T05:12:58.835Z,4
2016-04-03T05:13:58.806Z,4
2016-04-03T05:14:58.751Z,4
2016-04-03T05:15:58.650Z,4
2016-04-03T05:16:58.609Z,8
2016-04-03T05:17:58.553Z,4
2016-04-03T05:18:58.468Z,4
2016-04-03T05:19:58.404Z,8
2016-04-03T05:20:58.356Z,8
2016-04-03T05:21:58.292Z,4
2016-04-03T05:22:58.259Z,4
2016-04-03T05:23:58.212Z,8
2016-04-03T05:24:58.166Z,8
2016-04-03T05:25:58.105Z,4
2016-04-03T05:26:58.028Z,8
2016-04-03T05:27:57.983Z,8
2016-04-03T05:28:57.906Z,8
2016-04-03T05:29:57.877Z,8
2016-04-03T05:30:57.800Z,8
2016-04-03T05:31:57.740Z,8
2016-04-03T05:32:57.696Z,8
2016-04-03T05:33:57.667Z,8
2016-04-03T05:34:57.591Z,8
2016-04-03T05:35:57.562Z,12
2016-04-03T05:36:57.486Z,8
2016-04-03T05:37:57.441Z,8
2016-04-03T05:38:57.366Z,8
2016-04-03T05:39:57.337Z,8
2016-04-03T05:40:57.278Z,8
2016-04-03T05:41:57.218Z,8
2016-04-03T05:42:57.001Z,8
2016-04-03T05:43:57.098Z,12
2016-04-03T05:44:57.069Z,8
2016-04-03T05:45:56.853Z,12
2016-04-03T05:46:56.981Z,12
2016-04-03T05:47:56.889Z,12
2016-04-03T05:48:56.845Z,12
2016-04-03T05:49:56.645Z,12
2016-04-03T05:50:56.758Z,12
2016-04-03T05:51:56.682Z,12
2016-04-03T05:52:56.669Z,12
2016-04-03T05:53:56.594Z,12
2016-04-03T05:54:56.566Z,16
2016-04-03T05:55:56.474Z,20
2016-04-03T05:56:56.430Z,16
2016-04-03T05:57:56.402Z,20
2016-04-03T05:58:56.295Z,20
2016-04-03T05:59:56.266Z,20
2016-04-03T06:00:56.222Z,20
2016-04-03T06:01:56.193Z,20
2016-04-03T06:02:56.102Z,20
2016-04-03T06:03:56.058Z,20
2016-04-03T06:04:55.983Z,20
2016-04-03T06:05:55.954Z,20
2016-04-03T06:06:55.891Z,20
2016-04-03T06:07:55.863Z,16
2016-04-03T06:08:55.788Z,20
2016-04-03T06:09:55.774Z,20
2016-04-03T06:10:55.684Z,20
2016-04-03T06:11:55.640Z,20
2016-04-03T06:12:55.564Z,24
2016-04-03T06:13:55.520Z,20
2016-04-03T06:14:55.476Z,20
2016-04-03T06:15:55.415Z,20
2016-04-03T06:16:55.372Z,20
2016-04-03T06:17:55.312Z,20
2016-04-03T06:18:55.298Z,20
2016-04-03T06:19:55.223Z,20
2016-04-03T06:20:55.008Z,20
2016-04-03T06:21:55.120Z,20
2016-04-03T06:22:55.028Z,20
2016-04-03T06:23:54.844Z,20
2016-04-03T06:24:54.972Z,20
2016-04-03T06:25:54.897Z,24
2016-04-03T06:26:54.836Z,28
2016-04-03T06:27:54.792Z,24
2016-04-03T06:28:54.764Z,24
2016-04-03T06:29:54.672Z,28
2016-04-03T06:30:54.628Z,24
2016-04-03T06:31:54.569Z,28
2016-04-03T06:32:54.524Z,24
2016-04-03T06:33:54.464Z,24
2016-04-03T06:34:54.421Z,24
2016-04-03T06:35:54.360Z,24
2016-04-03T06:36:54.316Z,28
2016-04-03T06:37:53.522Z,28
2016-04-03T06:38:54.212Z,24
2016-04-03T06:39:54.168Z,28
2016-04-03T06:40:54.108Z,28
2016-04-03T06:41:54.079Z,28
2016-04-03T06:42:53.863Z,28
2016-04-03T06:43:53.960Z,28
2016-04-03T06:44:53.900Z,28
2016-04-03T06:45:53.856Z,28
2016-04-03T06:46:53.796Z,32
2016-04-03T06:47:53.752Z,32
2016-04-03T06:48:53.693Z,32
2016-04-03T06:49:53.632Z,32
2016-04-03T06:50:53.620Z,36
2016-04-03T06:51:53.528Z,36
2016-04-03T06:52:53.515Z,36
2016-04-03T06:53:53.425Z,36
2016-04-03T06:54:53.364Z,36
2016-04-03T06:55:53.320Z,40
2016-04-03T06:56:53.276Z,40
2016-04-03T06:57:53.233Z,40
2016-04-03T06:58:53.173Z,40
2016-04-03T06:59:53.113Z,40
2016-04-03T07:00:53.069Z,44
2016-04-03T07:01:53.024Z,44
2016-04-03T07:02:52.949Z,44
2016-04-03T07:03:52.920Z,44
2016-04-03T07:04:52.860Z,48
2016-04-03T07:05:52.847Z,48
2016-04-03T07:06:52.757Z,48
2016-04-03T07:07:52.727Z,48
2016-04-03T07:08:52.668Z,48
2016-04-03T07:09:52.640Z,52
2016-04-03T07:10:52.563Z,48
2016-04-03T07:11:52.552Z,48
2016-04-03T07:12:52.460Z,52
2016-04-03T07:13:52.416Z,48
2016-04-03T07:14:52.357Z,52
2016-04-03T07:15:52.297Z,48
2016-04-03T07:16:52.268Z,52
2016-04-03T07:17:52.224Z,52
2016-04-03T07:18:52.165Z,52
2016-04-03T07:19:52.120Z,52
2016-04-03T07:20:52.060Z,52
2016-04-03T07:21:52.001Z,56
2016-04-03T07:22:51.956Z,60
2016-04-03T07:23:51.896Z,60
2016-04-03T07:24:51.867Z,60
2016-04-03T07:25:51.792Z,60
2016-04-03T07:26:51.764Z,60
2016-04-03T07:27:51.688Z,64
2016-04-03T07:28:51.644Z,64
2016-04-03T07:29:51.600Z,64
2016-04-03T07:30:51.571Z,64
2016-04-03T07:31:51.589Z,64
2016-04-03T07:32:51.452Z,60
2016-04-03T07:33:51.361Z,64
2016-04-03T07:34:51.348Z,64
2016-04-03T07:35:51.273Z,64
2016-04-03T07:36:51.275Z,64
2016-04-03T07:37:51.200Z,64
2016-04-03T07:38:51.140Z,64
2016-04-03T07:39:51.096Z,64
2016-04-03T07:40:51.067Z,64
2016-04-03T07:41:50.960Z,64
2016-04-03T07:42:50.979Z,64
2016-04-03T07:43:50.888Z,64
2016-04-03T07:44:50.827Z,68
2016-04-03T07:45:50.783Z,64
2016-04-03T07:46:50.740Z,64
2016-04-03T07:47:50.695Z,68
2016-04-03T07:48:50.635Z,64
2016-04-03T07:49:51.012Z,64
2016-04-03T07:50:50.390Z,64
2016-04-03T07:51:50.456Z,64
2016-04-03T07:52:50.412Z,68
2016-04-03T07:53:50.384Z,64
2016-04-03T07:54:50.339Z,64
2016-04-03T07:55:50.279Z,64
2016-04-03T07:56:50.235Z,64
2016-04-03T07:57:50.175Z,68
2016-04-03T07:58:50.131Z,64
2016-04-03T07:59:50.071Z,64
2016-04-03T08:00:50.011Z,64
2016-04-03T08:01:49.967Z,68
2016-04-03T08:02:49.922Z,64
2016-04-03T08:03:49.879Z,68
2016-04-03T08:04:49.819Z,76
2016-04-03T08:05:49.775Z,80
2016-04-03T08:06:49.731Z,84
2016-04-03T08:07:49.686Z,80
2016-04-03T08:08:49.627Z,84
2016-04-03T08:09:49.582Z,84
2016-04-03T08:10:49.522Z,88
2016-04-03T08:11:49.494Z,88
2016-04-03T08:12:49.435Z,96
2016-04-03T08:13:49.374Z,96
2016-04-03T08:14:49.330Z,96
2016-04-03T08:15:49.286Z,100
2016-04-03T08:16:49.241Z,96
2016-04-03T08:17:49.182Z,96
2016-04-03T08:18:49.121Z,96
2016-04-03T08:19:49.078Z,92
2016-04-03T08:20:49.034Z,92
2016-04-03T08:21:48.973Z,88
2016-04-03T08:22:48.946Z,92
2016-04-03T08:23:48.885Z,88
2016-04-03T08:24:48.857Z,88
2016-04-03T08:25:48.782Z,88
2016-04-03T08:26:48.754Z,84
2016-04-03T08:27:48.709Z,84
2016-04-03T08:28:48.649Z,80
2016-04-03T08:29:48.621Z,80
2016-04-03T08:30:48.389Z,76
2016-04-03T08:31:48.517Z,80
2016-04-03T08:32:48.442Z,76
2016-04-03T08:33:48.381Z,80
2016-04-03T08:34:48.369Z,76
2016-04-03T08:35:48.309Z,72
2016-04-03T08:36:48.280Z,68
2016-04-03T08:37:47.470Z,64
2016-04-03T08:38:48.144Z,64
2016-04-03T08:39:48.116Z,64
2016-04-03T08:40:48.072Z,60
2016-04-03T08:41:48.012Z,60
2016-04-03T08:42:47.999Z,56
2016-04-03T08:43:47.939Z,56
2016-04-03T08:44:47.880Z,56
2016-04-03T08:45:47.819Z,52
2016-04-03T08:46:47.776Z,52
2016-04-03T08:47:47.746Z,52
2016-04-03T08:48:47.656Z,52
2016-04-03T08:49:47.627Z,48
2016-04-03T08:50:47.567Z,52
2016-04-03T08:51:47.539Z,48
2016-04-03T08:52:47.479Z,48
2016-04-03T08:53:47.419Z,52
2016-04-03T08:54:47.375Z,52
2016-04-03T08:55:47.362Z,48
2016-04-03T08:56:47.286Z,52
2016-04-03T08:57:47.259Z,52
2016-04-03T08:58:47.198Z,52
2016-04-03T08:59:47.154Z,56
2016-04-03T09:00:47.094Z,56
2016-04-03T09:01:47.050Z,56
2016-04-03T09:02:46.990Z,64
2016-04-03T09:03:46.946Z,64
2016-04-03T09:04:46.902Z,64
2016-04-03T09:05:46.873Z,64
2016-04-03T09:06:46.814Z,64
2016-04-03T09:07:46.657Z,68
2016-04-03T09:08:46.701Z,72
2016-04-03T09:09:46.657Z,76
2016-04-03T09:10:46.613Z,80
2016-04-03T09:11:46.568Z,80
2016-04-03T09:12:46.556Z,84
2016-04-03T09:13:46.479Z,88
2016-04-03T09:14:46.436Z,92
2016-04-03T09:15:46.360Z,92
2016-04-03T09:16:46.348Z,96
2016-04-03T09:17:46.257Z,100
2016-04-03T09:18:46.243Z,104
2016-04-03T09:19:46.418Z,96
2016-04-03T09:20:46.156Z,76
2016-04-03T09:21:46.080Z,80
2016-04-03T09:22:46.036Z,84
2016-04-03T09:23:45.975Z,92
2016-04-03T09:24:45.963Z,76
2016-04-03T09:25:45.886Z,80
2016-04-03T09:26:45.858Z,76
2016-04-03T09:27:45.846Z,72
2016-04-03T09:28:45.770Z,72
2016-04-03T09:29:45.742Z,72
2016-04-03T09:30:45.963Z,68
2016-04-03T09:31:45.622Z,76
2016-04-03T09:32:45.577Z,76
2016-04-03T09:33:45.519Z,80
2016-04-03T09:34:45.474Z,84
2016-04-03T09:35:45.430Z,92
2016-04-03T09:36:45.385Z,88
2016-04-03T09:37:45.341Z,88
2016-04-03T09:38:45.268Z,92
2016-04-03T09:39:45.223Z,100
2016-04-03T09:40:45.195Z,104
2016-04-03T09:41:45.151Z,112
2016-04-03T09:42:45.091Z,116
2016-04-03T09:43:45.062Z,132
2016-04-03T09:44:45.050Z,140
2016-04-03T09:45:44.975Z,140
2016-04-03T09:46:44.898Z,144
2016-04-03T09:47:44.855Z,148
2016-04-03T09:48:45.279Z,144
2016-04-03T09:49:44.906Z,156
2016-04-03T09:50:44.738Z,160
2016-04-03T09:51:44.678Z,156
2016-04-03T09:52:44.619Z,148
2016-04-03T09:53:44.606Z,144
2016-04-03T09:54:44.530Z,152
2016-04-03T09:55:44.501Z,168
2016-04-03T09:56:44.441Z,172
2016-04-03T09:57:44.382Z,172
2016-04-03T09:58:44.352Z,168
2016-04-03T09:59:44.308Z,168
2016-04-03T10:00:44.233Z,176
2016-04-03T10:01:44.205Z,176
2016-04-03T10:02:44.234Z,184
2016-04-03T10:03:44.379Z,184
2016-04-03T10:04:44.024Z,184
2016-04-03T10:05:43.865Z,184
2016-04-03T10:06:43.859Z,196
2016-04-03T10:07:43.940Z,196
2016-04-03T10:08:43.879Z,184
2016-04-03T10:09:43.820Z,192
2016-04-03T10:10:43.791Z,196
2016-04-03T10:11:43.748Z,212
2016-04-03T10:12:43.703Z,208
2016-04-03T10:13:43.659Z,212
2016-04-03T10:14:43.615Z,212
2016-04-03T10:15:43.555Z,204
2016-04-03T10:16:43.526Z,220
2016-04-03T10:17:43.497Z,220
2016-04-03T10:18:43.453Z,220
2016-04-03T10:19:43.441Z,216
2016-04-03T10:20:43.350Z,224
2016-04-03T10:21:43.289Z,228
2016-04-03T10:22:43.245Z,228
2016-04-03T10:23:43.217Z,224
2016-04-03T10:24:43.158Z,216
2016-04-03T10:25:43.128Z,212
2016-04-03T10:26:43.069Z,204
2016-04-03T10:27:43.024Z,204
2016-04-03T10:28:42.965Z,204
2016-04-03T10:29:42.936Z,212
2016-04-03T10:30:42.908Z,204
2016-04-03T10:31:42.692Z,188
2016-04-03T10:32:42.788Z,200
2016-04-03T10:33:42.760Z,192
2016-04-03T10:34:42.715Z,200
2016-04-03T10:35:42.687Z,216
2016-04-03T10:36:42.626Z,176
2016-04-03T10:37:42.598Z,212
2016-04-03T10:38:42.554Z,208
2016-04-03T10:39:42.495Z,196
2016-04-03T10:40:42.451Z,184
2016-04-03T10:41:42.515Z,216
2016-04-03T10:42:42.409Z,208
2016-04-03T10:43:42.427Z,224
2016-04-03T10:44:42.305Z,228
2016-04-03T10:45:42.245Z,228
2016-04-03T10:46:42.201Z,228
2016-04-03T10:47:42.188Z,232
2016-04-03T10:48:42.362Z,228
2016-04-03T10:49:42.053Z,224
2016-04-03T10:50:42.024Z,220
2016-04-03T10:51:41.980Z,224
2016-04-03T10:52:42.247Z,216
2016-04-03T10:53:41.891Z,180
2016-04-03T10:54:41.863Z,204
2016-04-03T10:55:41.819Z,204
2016-04-03T10:56:41.759Z,212
2016-04-03T10:57:41.746Z,212
2016-04-03T10:58:41.686Z,204
2016-04-03T10:59:41.641Z,212
2016-04-03T11:00:41.582Z,212
2016-04-03T11:01:41.553Z,208
2016-04-03T11:02:41.524Z,216
2016-04-03T11:03:41.465Z,168
2016-04-03T11:04:41.452Z,2776
2016-04-03T11:05:41.377Z,2752
2016-04-03T11:06:41.333Z,2708
2016-04-03T11:07:41.624Z,2680
2016-04-03T11:08:41.564Z,2648
2016-04-03T11:09:41.207Z,2600
2016-04-03T11:10:41.257Z,2536
2016-04-03T11:11:41.120Z,2488
2016-04-03T11:12:41.091Z,2448
2016-04-03T11:13:41.062Z,2420
2016-04-03T11:14:41.003Z,2380
2016-04-03T11:15:40.942Z,2332
2016-04-03T11:16:40.930Z,2256
2016-04-03T11:17:40.885Z,2224
2016-04-03T11:18:40.825Z,2212
2016-04-03T11:19:40.797Z,2204
2016-04-03T11:20:40.737Z,2184
2016-04-03T11:21:40.708Z,2184
2016-04-03T11:22:40.664Z,2172
2016-04-03T11:23:40.605Z,2160
2016-04-03T11:24:40.560Z,2168
2016-04-03T11:25:40.797Z,2188
2016-04-03T11:26:40.566Z,2192
2016-04-03T11:27:40.444Z,2228
2016-04-03T11:28:40.478Z,2268
2016-04-03T11:29:40.590Z,2316
2016-04-03T11:30:40.311Z,2296
2016-04-03T11:31:40.283Z,2244
2016-04-03T11:32:40.504Z,2228
2016-04-03T11:33:40.460Z,2228
2016-04-03T11:34:40.353Z,2244
2016-04-03T11:35:40.137Z,2288
2016-04-03T11:36:40.077Z,2336
2016-04-03T11:37:40.315Z,2392
2016-04-03T11:38:40.005Z,2436
2016-04-03T11:39:40.273Z,2460
2016-04-03T11:40:39.932Z,2472
2016-04-03T11:41:40.075Z,2416
2016-04-03T11:42:40.125Z,2384
2016-04-03T11:43:39.798Z,2316
2016-04-03T11:44:39.801Z,2308
2016-04-03T11:45:39.726Z,2296
2016-04-03T11:46:39.729Z,2244
2016-04-03T11:47:39.592Z,2188
2016-04-03T11:48:39.578Z,2132
2016-04-03T11:49:39.550Z,2108
2016-04-03T11:50:39.537Z,2096
2016-04-03T11:51:39.493Z,2028
2016-04-03T11:52:39.417Z,1972
2016-04-03T11:53:39.358Z,1924
2016-04-03T11:54:39.361Z,1884
2016-04-03T11:55:39.285Z,1872
2016-04-03T11:56:39.225Z,1844
2016-04-03T11:57:39.211Z,1828
2016-04-03T11:58:39.183Z,1824
2016-04-03T11:59:39.091Z,1820
2016-04-03T12:00:39.094Z,1792
2016-04-03T12:01:39.036Z,1792
2016-04-03T12:02:38.975Z,1788
2016-04-03T12:03:38.977Z,1784
2016-04-03T12:04:38.903Z,1688
2016-04-03T12:05:38.828Z,1732
2016-04-03T12:06:38.799Z,1712
2016-04-03T12:07:38.785Z,1704
2016-04-03T12:08:38.726Z,1688
2016-04-03T12:09:38.713Z,1644
2016-04-03T12:10:38.669Z,1676
2016-04-03T12:11:38.610Z,1664
2016-04-03T12:12:38.596Z,1868
2016-04-03T12:13:38.505Z,1564
2016-04-03T12:14:38.492Z,1680
2016-04-03T12:15:38.479Z,1580
2016-04-03T12:16:38.404Z,1516
2016-04-03T12:17:38.391Z,1544
2016-04-03T12:18:38.331Z,1536
2016-04-03T12:19:38.286Z,1508
2016-04-03T12:20:38.228Z,1472
2016-04-03T12:21:38.245Z,1508
2016-04-03T12:22:38.139Z,1588
2016-04-03T12:23:38.125Z,1584
2016-04-03T12:24:38.097Z,1560
2016-04-03T12:25:38.053Z,1552
2016-04-03T12:26:38.008Z,1540
2016-04-03T12:27:37.981Z,1524
2016-04-03T12:28:37.905Z,1520
2016-04-03T12:29:37.955Z,1512
2016-04-03T12:30:37.864Z,1492
2016-04-03T12:31:37.788Z,1416
2016-04-03T12:32:37.760Z,1476
2016-04-03T12:33:37.700Z,1472
2016-04-03T12:34:37.686Z,1460
2016-04-03T12:35:37.675Z,1452
2016-04-03T12:36:37.583Z,1444
2016-04-03T12:37:37.538Z,1444
2016-04-03T12:38:37.541Z,1436
2016-04-03T12:39:37.465Z,1436
2016-04-03T12:40:37.407Z,1432
2016-04-03T12:41:37.410Z,1428
2016-04-03T12:42:37.349Z,1428
2016-04-03T12:43:37.305Z,1420
2016-04-03T12:44:37.293Z,1420
2016-04-03T12:45:37.201Z,1416
2016-04-03T12:46:37.188Z,1408
2016-04-03T12:47:37.207Z,1364
2016-04-03T12:48:37.116Z,1356
2016-04-03T12:49:37.071Z,1332
2016-04-03T12:50:36.996Z,1368
2016-04-03T12:51:37.062Z,1372
2016-04-03T12:52:36.939Z,1364
2016-04-03T12:53:36.910Z,1388
2016-04-03T12:54:36.834Z,1392
2016-04-03T12:55:36.806Z,1384
2016-04-03T12:56:36.793Z,1376
2016-04-03T12:57:36.718Z,1308
2016-04-03T12:58:36.658Z,1304
2016-04-03T12:59:36.645Z,1300
2016-04-03T13:00:36.632Z,1300
2016-04-03T13:01:36.557Z,1280
2016-04-03T13:02:36.512Z,1244
2016-04-03T13:03:36.483Z,1220
2016-04-03T13:04:36.456Z,1224
2016-04-03T13:05:36.380Z,1272
2016-04-03T13:06:36.352Z,1256
2016-04-03T13:07:36.323Z,1256
2016-04-03T13:08:36.294Z,1248
2016-04-03T13:09:36.219Z,1228
2016-04-03T13:10:36.191Z,1220
2016-04-03T13:11:36.147Z,1216
2016-04-03T13:12:36.086Z,1196
2016-04-03T13:13:36.058Z,1184
2016-04-03T13:14:36.014Z,1164
2016-04-03T13:15:35.969Z,1188
2016-04-03T13:16:35.941Z,1196
2016-04-03T13:17:35.897Z,1172
2016-04-03T13:18:35.837Z,1152
2016-04-03T13:19:35.840Z,1164
2016-04-03T13:20:35.765Z,1180
2016-04-03T13:21:35.735Z,1132
2016-04-03T13:22:35.690Z,1128
2016-04-03T13:23:35.851Z,1136
2016-04-03T13:24:35.634Z,1116
2016-04-03T13:25:35.559Z,1080
2016-04-03T13:26:35.515Z,1092
2016-04-03T13:27:35.470Z,1084
2016-04-03T13:28:35.442Z,1028
2016-04-03T13:29:35.241Z,1000
2016-04-03T13:30:35.354Z,1032
2016-04-03T13:31:35.325Z,1024
2016-04-03T13:32:35.264Z,1032
2016-04-03T13:33:35.237Z,1044
2016-04-03T13:34:35.333Z,1068
2016-04-03T13:35:35.132Z,1076
2016-04-03T13:36:35.119Z,1060
2016-04-03T13:37:35.075Z,1064
2016-04-03T13:38:35.031Z,1040
2016-04-03T13:39:35.003Z,1060
2016-04-03T13:40:34.975Z,1044
2016-04-03T13:41:34.899Z,1052
2016-04-03T13:42:34.855Z,1048
2016-04-03T13:43:34.810Z,1040
2016-04-03T13:44:34.797Z,1012
2016-04-03T13:45:34.738Z,1012
2016-04-03T13:46:34.693Z,1004
2016-04-03T13:47:34.649Z,980
2016-04-03T13:48:34.636Z,920
2016-04-03T13:49:34.576Z,936
2016-04-03T13:50:34.533Z,944
2016-04-03T13:51:34.535Z,960
2016-04-03T13:52:34.460Z,972
2016-04-03T13:53:34.432Z,956
2016-04-03T13:54:34.356Z,944
2016-04-03T13:55:34.312Z,940
2016-04-03T13:56:34.298Z,912
2016-04-03T13:57:34.254Z,908
2016-04-03T13:58:34.210Z,904
2016-04-03T13:59:34.150Z,892
2016-04-03T14:00:34.122Z,892
2016-04-03T14:01:34.108Z,904
2016-04-03T14:02:34.048Z,920
2016-04-03T14:03:33.989Z,904
2016-04-03T14:04:34.194Z,896
2016-04-03T14:05:33.917Z,884
2016-04-03T14:06:33.856Z,864
2016-04-03T14:07:33.828Z,880
2016-04-03T14:08:33.939Z,868
2016-04-03T14:09:33.755Z,868
2016-04-03T14:10:33.711Z,876
2016-04-03T14:11:33.666Z,872